Time;durP1;ratioP1;P1;durP2;ratioP2;P2;SDS_P1;SDS_P2;PMS_P1;PMS_P2;Temp;Humidity;BMP_temperature;BMP_pressure;BME280_temperature;BME280_humidity;BME280_pressure;Samples;Min_cycle;Max_cycle;Signal;HPM_P1;HPM_P2
2021/09/25 00:00:15;;;;;;;300.40;287.87;;;17.70;99.90;;;;;;4344597;33;20651;-65
2021/09/25 00:02:41;;;;;;;304.17;291.60;;;17.70;99.90;;;;;;4345577;33;20157;-66
2021/09/25 00:05:10;;;;;;;285.00;272.87;;;17.70;99.90;;;;;;4339709;33;20235;-66
2021/09/25 00:07:36;;;;;;;285.03;272.73;;;17.70;99.90;;;;;;4345529;33;20172;-65
2021/09/25 00:10:04;;;;;;;301.23;288.90;;;17.70;99.90;;;;;;4344728;33;20208;-65
2021/09/25 00:12:32;;;;;;;281.60;270.10;;;17.70;99.90;;;;;;4341880;33;20165;-65
2021/09/25 00:14:59;;;;;;;291.97;279.97;;;17.70;99.90;;;;;;4345656;33;20152;-66
2021/09/25 00:17:26;;;;;;;288.43;276.17;;;17.60;99.90;;;;;;4344224;33;20266;-66
2021/09/25 00:19:53;;;;;;;299.63;287.37;;;17.60;99.90;;;;;;4346302;33;20182;-65
2021/09/25 00:22:20;;;;;;;282.70;270.90;;;17.60;99.90;;;;;;4343313;33;20223;-65
2021/09/25 00:24:47;;;;;;;294.30;282.67;;;17.60;99.90;;;;;;4346312;33;20171;-67
2021/09/25 00:27:17;;;;;;;278.73;267.03;;;17.60;99.90;;;;;;4341297;33;20268;-64
2021/09/25 00:29:50;;;;;;;288.87;277.20;;;17.60;99.90;;;;;;4334409;33;20288;-64
2021/09/25 00:32:17;;;;;;;282.93;271.63;;;17.50;99.90;;;;;;4337640;33;20513;-65
2021/09/25 00:34:47;;;;;;;279.20;267.20;;;17.50;99.90;;;;;;4329835;33;20231;-66
2021/09/25 00:37:13;;;;;;;284.07;272.60;;;17.50;99.90;;;;;;4342702;33;20617;-64
2021/09/25 00:39:40;;;;;;;287.57;275.87;;;17.50;99.90;;;;;;4345022;33;20177;-65
2021/09/25 00:42:08;;;;;;;290.63;279.00;;;17.40;99.90;;;;;;4348012;33;20169;-65
2021/09/25 00:44:35;;;;;;;285.87;274.23;;;17.40;99.90;;;;;;4348162;33;20621;-67
2021/09/25 00:47:06;;;;;;;278.83;267.27;;;17.40;99.90;;;;;;4346971;33;20199;-66
2021/09/25 00:49:35;;;;;;;291.70;279.97;;;17.40;99.90;;;;;;4348312;33;20148;-64
2021/09/25 00:52:07;;;;;;;285.20;273.73;;;17.40;99.90;;;;;;4257735;33;2986317;-64
2021/09/25 00:54:34;;;;;;;298.30;286.27;;;17.40;99.90;;;;;;4347603;33;20156;-65
2021/09/25 00:57:02;;;;;;;291.47;279.40;;;17.40;99.90;;;;;;4346999;33;20157;-65
2021/09/25 00:59:38;;;;;;;293.67;281.73;;;17.40;99.90;;;;;;4347481;33;20247;-65
2021/09/25 01:02:17;;;;;;;279.60;267.87;;;17.40;99.90;;;;;;4347311;33;20175;-66
2021/09/25 01:04:44;;;;;;;272.57;261.37;;;17.40;99.90;;;;;;4347288;33;20498;-64
2021/09/25 01:07:11;;;;;;;293.37;281.40;;;17.40;99.90;;;;;;4347067;33;20278;-64
2021/09/25 01:09:40;;;;;;;285.67;273.87;;;17.40;99.90;;;;;;4347141;33;20173;-65
2021/09/25 01:12:07;;;;;;;276.93;265.57;;;17.40;99.90;;;;;;4347496;33;20172;-65
2021/09/25 01:14:35;;;;;;;276.00;264.70;;;17.40;99.90;;;;;;4346862;33;20185;-64
2021/09/25 01:17:12;;;;;;;291.73;279.73;;;17.40;99.90;;;;;;4347506;33;20217;-65
2021/09/25 01:19:41;;;;;;;287.77;275.53;;;17.30;99.90;;;;;;4343012;33;20157;-64
2021/09/25 01:22:12;;;;;;;275.23;263.97;;;17.30;99.90;;;;;;4347475;33;20191;-64
2021/09/25 01:24:40;;;;;;;281.00;269.57;;;17.30;99.90;;;;;;4348119;33;20193;-65
2021/09/25 01:27:07;;;;;;;283.03;271.17;;;17.30;99.90;;;;;;4347902;33;20171;-65
2021/09/25 01:29:37;;;;;;;288.73;276.47;;;17.20;99.90;;;;;;4343883;33;20191;-65
2021/09/25 01:32:04;;;;;;;276.83;264.97;;;17.20;99.90;;;;;;4348360;33;20208;-64
2021/09/25 01:34:34;;;;;;;298.97;286.47;;;17.20;99.90;;;;;;4346370;33;20228;-65
2021/09/25 01:37:03;;;;;;;298.50;286.33;;;17.10;99.90;;;;;;4342505;33;20162;-65
2021/09/25 01:39:31;;;;;;;286.00;273.60;;;17.10;99.90;;;;;;4346856;33;20251;-64
2021/09/25 01:41:59;;;;;;;298.07;285.60;;;17.10;99.90;;;;;;4348049;33;20165;-65
2021/09/25 01:44:26;;;;;;;294.23;281.97;;;17.10;99.90;;;;;;4347074;33;20149;-65
2021/09/25 01:46:53;;;;;;;301.10;288.67;;;17.10;99.90;;;;;;4345827;33;20217;-65
2021/09/25 01:49:20;;;;;;;298.47;285.47;;;17.10;99.90;;;;;;4346914;33;20172;-64
2021/09/25 01:51:47;;;;;;;293.47;281.03;;;17.00;99.90;;;;;;4344082;33;20216;-65
2021/09/25 01:54:15;;;;;;;296.33;284.10;;;17.00;99.90;;;;;;4347010;33;20586;-65
2021/09/25 01:56:43;;;;;;;289.90;277.83;;;17.00;99.90;;;;;;4346489;33;20239;-65
2021/09/25 01:59:12;;;;;;;294.73;282.40;;;17.00;99.90;;;;;;4346693;33;20212;-65
2021/09/25 02:01:42;;;;;;;294.53;282.47;;;16.90;99.90;;;;;;4346037;33;20196;-65
2021/09/25 02:04:11;;;;;;;300.20;287.70;;;17.00;99.90;;;;;;4346836;33;20157;-64
2021/09/25 02:06:37;;;;;;;301.77;289.40;;;16.90;99.90;;;;;;4346291;33;20169;-65
2021/09/25 02:09:07;;;;;;;293.63;281.67;;;16.90;99.90;;;;;;4346790;33;20209;-66
2021/09/25 02:11:35;;;;;;;293.43;281.10;;;16.90;99.90;;;;;;4343196;33;20157;-65
2021/09/25 02:14:07;;;;;;;286.57;274.80;;;17.00;99.90;;;;;;4346633;33;20149;-64
2021/09/25 02:16:37;;;;;;;281.20;269.87;;;17.00;99.90;;;;;;4346208;33;20161;-66
2021/09/25 02:19:08;;;;;;;277.30;265.60;;;17.00;99.90;;;;;;4346503;33;20181;-65
2021/09/25 02:21:36;;;;;;;290.17;278.10;;;17.00;99.90;;;;;;4343728;33;20156;-65
2021/09/25 02:24:03;;;;;;;292.97;280.87;;;17.00;99.90;;;;;;4345486;33;20663;-65
2021/09/25 02:26:31;;;;;;;303.47;290.90;;;17.00;99.90;;;;;;4342043;33;20228;-65
2021/09/25 02:28:58;;;;;;;291.20;279.17;;;17.00;99.90;;;;;;4343855;33;20224;-66
2021/09/25 02:31:26;;;;;;;300.93;288.40;;;17.00;99.90;;;;;;4334329;33;20161;-66
2021/09/25 02:33:53;;;;;;;299.17;286.70;;;17.00;99.90;;;;;;4340136;33;20161;-66
2021/09/25 02:36:21;;;;;;;311.63;298.40;;;17.00;99.90;;;;;;4346299;33;20637;-66
2021/09/25 02:38:51;;;;;;;284.97;273.23;;;17.00;99.90;;;;;;4343250;33;20199;-65
2021/09/25 02:41:19;;;;;;;298.40;285.87;;;17.00;99.90;;;;;;4346069;33;20163;-65
2021/09/25 02:43:48;;;;;;;291.57;279.53;;;17.00;99.90;;;;;;4345586;33;20157;-66
2021/09/25 02:46:22;;;;;;;295.67;283.37;;;17.00;99.90;;;;;;4341909;33;20153;-66
2021/09/25 02:48:52;;;;;;;300.87;288.03;;;17.00;99.90;;;;;;4344870;33;20156;-66
2021/09/25 02:51:19;;;;;;;282.33;270.27;;;17.00;99.90;;;;;;4346007;33;20201;-65
2021/09/25 02:53:45;;;;;;;283.77;271.77;;;16.90;99.90;;;;;;4345385;33;20478;-65
2021/09/25 02:56:13;;;;;;;303.97;290.60;;;16.90;99.90;;;;;;4347154;33;20176;-65
2021/09/25 02:58:40;;;;;;;317.23;304.07;;;16.90;99.90;;;;;;4346287;33;20173;-66
2021/09/25 03:01:07;;;;;;;286.17;273.70;;;16.90;99.90;;;;;;4345349;33;20253;-66
2021/09/25 03:03:33;;;;;;;304.57;291.87;;;16.90;99.90;;;;;;4346042;33;20172;-66
2021/09/25 03:06:02;;;;;;;305.80;293.00;;;16.90;99.90;;;;;;4344102;33;20736;-65
2021/09/25 03:08:28;;;;;;;308.97;295.60;;;16.80;99.90;;;;;;4346323;33;20176;-66
2021/09/25 03:10:55;;;;;;;307.47;294.17;;;16.80;99.90;;;;;;4345782;33;20179;-65
2021/09/25 03:13:22;;;;;;;314.20;300.53;;;16.90;99.90;;;;;;4345986;33;20153;-66
2021/09/25 03:15:50;;;;;;;299.70;287.03;;;16.80;99.90;;;;;;4345382;33;20176;-66
2021/09/25 03:18:16;;;;;;;325.63;311.53;;;16.90;99.90;;;;;;4342059;33;20165;-65
2021/09/25 03:20:43;;;;;;;308.47;295.33;;;16.90;99.90;;;;;;4346807;33;20180;-65
2021/09/25 03:23:11;;;;;;;302.33;289.60;;;16.90;99.90;;;;;;4345324;33;20788;-65
2021/09/25 03:25:38;;;;;;;302.50;289.37;;;16.90;99.90;;;;;;4345902;33;20183;-66
2021/09/25 03:28:05;;;;;;;314.63;301.10;;;16.80;99.90;;;;;;4341094;33;20173;-66
2021/09/25 03:30:32;;;;;;;310.60;297.33;;;16.80;99.90;;;;;;4345747;33;20153;-66
2021/09/25 03:32:59;;;;;;;322.53;308.83;;;16.80;99.90;;;;;;4345376;33;20513;-64
2021/09/25 03:35:27;;;;;;;312.27;299.17;;;16.80;99.90;;;;;;4345764;33;20180;-64
2021/09/25 03:37:53;;;;;;;297.83;284.87;;;16.90;99.90;;;;;;4339573;33;20581;-65
2021/09/25 03:40:22;;;;;;;308.93;294.90;;;16.90;99.90;;;;;;4345542;33;20211;-64
2021/09/25 03:42:52;;;;;;;294.97;282.27;;;16.80;99.90;;;;;;4344977;33;20161;-65
2021/09/25 03:45:19;;;;;;;294.13;281.40;;;16.80;99.90;;;;;;4345683;33;20183;-64
2021/09/25 03:47:46;;;;;;;315.67;302.13;;;16.80;99.90;;;;;;4340376;33;20181;-64
2021/09/25 03:50:14;;;;;;;320.37;306.83;;;16.80;99.90;;;;;;4347293;33;20167;-64
2021/09/25 03:52:41;;;;;;;316.73;303.00;;;16.80;99.90;;;;;;4344935;33;20208;-64
2021/09/25 03:55:11;;;;;;;320.77;307.10;;;16.80;99.90;;;;;;4341620;33;20171;-64
2021/09/25 03:57:57;;;;;;;323.93;309.90;;;16.70;99.90;;;;;;4345519;33;20161;-65
2021/09/25 04:00:29;;;;;;;318.43;304.30;;;16.70;99.90;;;;;;4341974;33;20160;-65
2021/09/25 04:02:56;;;;;;;313.57;300.00;;;16.70;99.90;;;;;;4347230;33;20149;-64
2021/09/25 04:05:23;;;;;;;324.03;309.87;;;16.70;99.90;;;;;;4345032;33;20176;-63
2021/09/25 04:07:50;;;;;;;333.57;318.87;;;16.70;99.90;;;;;;4346030;33;20165;-63
2021/09/25 04:10:18;;;;;;;330.07;315.93;;;16.70;99.90;;;;;;4346795;33;20216;-64
2021/09/25 04:12:49;;;;;;;312.67;299.07;;;16.70;99.90;;;;;;4347986;33;20187;-64
2021/09/25 04:15:16;;;;;;;311.10;297.93;;;16.70;99.90;;;;;;4348098;33;20153;-65
2021/09/25 04:17:43;;;;;;;324.80;310.53;;;16.70;99.90;;;;;;4348048;33;20503;-66
2021/09/25 04:20:10;;;;;;;324.80;310.60;;;16.70;99.90;;;;;;4347879;33;20183;-65
2021/09/25 04:22:38;;;;;;;315.23;301.60;;;16.70;99.90;;;;;;4347440;33;20197;-65
2021/09/25 04:25:05;;;;;;;334.30;319.97;;;16.70;99.90;;;;;;4348169;33;20153;-65
2021/09/25 04:27:32;;;;;;;309.73;296.47;;;16.70;99.90;;;;;;4349262;33;20170;-65
2021/09/25 04:30:02;;;;;;;328.17;313.97;;;16.70;99.90;;;;;;4347896;33;20153;-65
2021/09/25 04:32:28;;;;;;;305.37;292.03;;;16.70;99.90;;;;;;4346887;33;20161;-64
2021/09/25 04:34:55;;;;;;;303.37;290.27;;;16.70;99.90;;;;;;4348508;33;20164;-65
2021/09/25 04:37:23;;;;;;;309.97;296.43;;;16.80;99.90;;;;;;4347510;33;20145;-64
2021/09/25 04:39:50;;;;;;;316.77;303.20;;;16.70;99.90;;;;;;4348544;33;20212;-66
2021/09/25 04:42:17;;;;;;;311.17;297.67;;;16.70;99.90;;;;;;4347730;33;20218;-65
2021/09/25 04:44:44;;;;;;;309.73;296.27;;;16.70;99.90;;;;;;4347831;33;20145;-64
2021/09/25 04:47:12;;;;;;;305.93;292.97;;;16.70;99.90;;;;;;4346818;33;20186;-64
2021/09/25 04:49:39;;;;;;;312.97;299.07;;;16.70;99.90;;;;;;4347498;33;20183;-64
2021/09/25 04:52:06;;;;;;;315.50;301.97;;;16.70;99.90;;;;;;4347207;33;20183;-64
2021/09/25 04:54:33;;;;;;;310.63;297.30;;;16.70;99.90;;;;;;4347482;33;20180;-66
2021/09/25 04:57:00;;;;;;;299.20;285.77;;;16.70;99.90;;;;;;4347051;33;20174;-64
2021/09/25 04:59:28;;;;;;;299.47;286.37;;;16.60;99.90;;;;;;4347374;33;20176;-64
2021/09/25 05:01:55;;;;;;;313.83;299.97;;;16.70;99.90;;;;;;4347162;33;20176;-64
2021/09/25 05:04:28;;;;;;;307.97;294.63;;;16.60;99.90;;;;;;4347388;33;20212;-64
2021/09/25 05:06:54;;;;;;;306.70;293.40;;;16.60;99.90;;;;;;4347849;33;20190;-65
2021/09/25 05:09:22;;;;;;;304.07;290.63;;;16.60;99.90;;;;;;4346156;33;20208;-65
2021/09/25 05:11:52;;;;;;;310.37;297.00;;;16.60;99.90;;;;;;4349309;33;20145;-64
2021/09/25 05:14:21;;;;;;;311.70;298.17;;;16.60;99.90;;;;;;4347343;33;20145;-65
2021/09/25 05:16:48;;;;;;;315.73;302.20;;;16.60;99.90;;;;;;4349037;33;20497;-64
2021/09/25 05:19:18;;;;;;;317.23;303.33;;;16.60;99.90;;;;;;4347067;33;20168;-64
2021/09/25 05:21:50;;;;;;;309.00;295.30;;;16.60;99.90;;;;;;4346381;33;20145;-64
2021/09/25 05:24:20;;;;;;;293.40;280.27;;;16.50;99.90;;;;;;4346778;33;20511;-65
2021/09/25 05:26:47;;;;;;;306.30;292.70;;;16.60;99.90;;;;;;4346280;33;20187;-64
2021/09/25 05:29:19;;;;;;;318.87;305.13;;;16.60;99.90;;;;;;4341253;33;20165;-64
2021/09/25 05:32:03;;;;;;;312.47;298.87;;;16.60;99.90;;;;;;4346282;33;20175;-64
2021/09/25 05:34:34;;;;;;;304.77;291.43;;;16.60;99.90;;;;;;4347106;33;20152;-64
2021/09/25 05:37:02;;;;;;;305.97;292.70;;;16.50;99.90;;;;;;4347286;33;20617;-64
2021/09/25 05:39:33;;;;;;;298.93;285.67;;;16.50;99.90;;;;;;4347024;33;20140;-64
2021/09/25 05:42:00;;;;;;;296.63;283.67;;;16.60;99.90;;;;;;4346565;33;20174;-65
2021/09/25 05:44:34;;;;;;;303.60;290.57;;;16.60;99.90;;;;;;4347963;33;20149;-64
2021/09/25 05:47:01;;;;;;;299.93;287.07;;;16.60;99.90;;;;;;4347469;33;20152;-65
2021/09/25 05:49:34;;;;;;;286.13;273.77;;;16.60;99.90;;;;;;4347384;33;20169;-64
2021/09/25 05:52:09;;;;;;;298.27;284.73;;;16.60;99.90;;;;;;4346427;33;20167;-64
2021/09/25 05:54:38;;;;;;;300.37;286.87;;;16.60;99.90;;;;;;4345703;33;20614;-66
2021/09/25 05:57:06;;;;;;;294.70;281.57;;;16.60;99.90;;;;;;4336515;33;20175;-64
2021/09/25 05:59:38;;;;;;;309.10;295.67;;;16.60;99.90;;;;;;4344061;33;20224;-63
2021/09/25 06:02:07;;;;;;;307.77;294.37;;;16.60;99.90;;;;;;4346634;33;20177;-65
2021/09/25 06:04:36;;;;;;;295.00;282.10;;;16.60;99.90;;;;;;4335440;33;20235;-65
2021/09/25 06:07:04;;;;;;;305.53;291.80;;;16.60;99.90;;;;;;4348735;33;20627;-66
2021/09/25 06:09:33;;;;;;;302.20;289.00;;;16.60;99.90;;;;;;4345482;33;20208;-65
2021/09/25 06:12:00;;;;;;;285.83;273.03;;;16.60;99.90;;;;;;4345509;33;20176;-64
2021/09/25 06:14:27;;;;;;;285.97;273.50;;;16.70;99.90;;;;;;4346173;33;20492;-64
2021/09/25 06:16:54;;;;;;;286.77;273.90;;;16.70;99.90;;;;;;4351954;32;20172;-64
2021/09/25 06:19:20;;;;;;;293.67;280.63;;;16.70;99.90;;;;;;4347086;33;20149;-64
2021/09/25 06:21:47;;;;;;;291.23;278.53;;;16.80;99.90;;;;;;4347906;33;20211;-65
2021/09/25 06:24:16;;;;;;;309.87;295.90;;;16.80;99.90;;;;;;4349034;32;20176;-65
2021/09/25 06:26:42;;;;;;;301.43;288.30;;;16.80;99.90;;;;;;4346058;33;20180;-63
2021/09/25 06:29:12;;;;;;;298.40;285.37;;;16.90;99.90;;;;;;4348673;33;20161;-64
2021/09/25 06:31:44;;;;;;;299.60;286.60;;;16.90;99.90;;;;;;4344420;33;20153;-63
2021/09/25 06:34:17;;;;;;;299.53;286.07;;;16.90;99.90;;;;;;4345297;33;20153;-64
2021/09/25 06:36:45;;;;;;;282.37;269.87;;;16.90;99.90;;;;;;4344079;33;20228;-66
2021/09/25 06:39:12;;;;;;;305.10;285.47;;;17.00;99.90;;;;;;4344050;33;20518;-65
2021/09/25 06:41:40;;;;;;;317.37;300.13;;;17.10;99.90;;;;;;4345667;33;20180;-65
2021/09/25 06:44:07;;;;;;;302.13;287.40;;;17.10;99.90;;;;;;4340177;32;20242;-65
2021/09/25 06:46:34;;;;;;;299.37;285.17;;;17.10;99.90;;;;;;4344413;33;20152;-65
2021/09/25 06:49:04;;;;;;;286.53;273.13;;;17.20;99.90;;;;;;4343707;33;20463;-66
2021/09/25 06:51:36;;;;;;;269.70;257.43;;;17.10;99.90;;;;;;4344063;33;20184;-65
2021/09/25 06:54:03;;;;;;;278.60;266.20;;;17.20;99.90;;;;;;4338612;33;20153;-64
2021/09/25 06:56:29;;;;;;;287.87;271.10;;;17.20;99.90;;;;;;4339616;33;20187;-64
2021/09/25 06:59:00;;;;;;;293.23;276.97;;;17.30;99.90;;;;;;4342879;33;20176;-65
2021/09/25 07:01:27;;;;;;;289.07;275.47;;;17.30;99.90;;;;;;4342010;33;20179;-66
2021/09/25 07:04:01;;;;;;;308.57;294.57;;;17.30;99.90;;;;;;4342063;33;20164;-65
2021/09/25 07:06:31;;;;;;;282.27;270.03;;;17.40;99.90;;;;;;4343328;33;20161;-66
2021/09/25 07:08:58;;;;;;;279.63;267.23;;;17.50;99.90;;;;;;4343180;33;20212;-65
2021/09/25 07:11:24;;;;;;;267.17;255.40;;;17.60;99.90;;;;;;4345619;33;20153;-65
2021/09/25 07:13:51;;;;;;;270.63;258.07;;;17.70;99.90;;;;;;4343621;33;20221;-64
2021/09/25 07:16:19;;;;;;;289.23;276.63;;;17.80;99.90;;;;;;4342225;33;20497;-66
2021/09/25 07:18:46;;;;;;;288.50;275.67;;;17.80;99.90;;;;;;4342035;33;20161;-66
2021/09/25 07:21:19;;;;;;;264.03;251.63;;;18.00;99.90;;;;;;4343844;33;20179;-64
2021/09/25 07:23:49;;;;;;;274.13;261.97;;;18.10;99.90;;;;;;4344936;33;20180;-64
2021/09/25 07:26:16;;;;;;;261.97;250.23;;;18.20;99.90;;;;;;4342721;33;20169;-64
2021/09/25 07:28:42;;;;;;;267.60;255.77;;;18.20;99.90;;;;;;4344648;33;20194;-65
2021/09/25 07:31:11;;;;;;;278.13;265.80;;;18.30;99.90;;;;;;4343915;33;20228;-66
2021/09/25 07:33:39;;;;;;;274.57;262.70;;;18.40;99.90;;;;;;4344701;33;21408;-65
2021/09/25 07:36:06;;;;;;;262.30;250.83;;;18.50;99.90;;;;;;4344151;33;20183;-64
2021/09/25 07:38:33;;;;;;;269.10;257.13;;;18.50;99.90;;;;;;4343980;33;20222;-66
2021/09/25 07:41:00;;;;;;;265.47;253.50;;;18.60;99.90;;;;;;4343876;33;20545;-65
2021/09/25 07:43:27;;;;;;;267.77;256.20;;;18.50;99.90;;;;;;4342118;33;20204;-66
2021/09/25 07:45:55;;;;;;;272.67;260.60;;;18.60;99.90;;;;;;4347450;33;20213;-64
2021/09/25 07:48:22;;;;;;;261.20;249.80;;;18.60;99.90;;;;;;4347162;33;20160;-65
2021/09/25 07:50:51;;;;;;;268.03;256.40;;;18.70;99.90;;;;;;4346111;33;20176;-64
2021/09/25 07:53:18;;;;;;;273.23;261.07;;;18.70;99.90;;;;;;4352838;33;20175;-65
2021/09/25 07:55:44;;;;;;;261.37;249.87;;;18.80;99.90;;;;;;4349314;32;20179;-66
2021/09/25 07:58:12;;;;;;;270.70;257.80;;;19.00;99.90;;;;;;4347107;33;20228;-66
2021/09/25 08:00:39;;;;;;;264.93;253.23;;;19.10;99.90;;;;;;4346495;33;20169;-66
2021/09/25 08:03:06;;;;;;;242.97;231.80;;;19.00;99.90;;;;;;4346323;33;20195;-65
2021/09/25 08:05:33;;;;;;;252.37;240.90;;;19.10;99.90;;;;;;4347115;33;20222;-64
2021/09/25 08:08:01;;;;;;;251.67;240.27;;;19.10;99.90;;;;;;4348473;33;20574;-65
2021/09/25 08:10:28;;;;;;;241.83;231.47;;;19.10;99.90;;;;;;4347086;33;20704;-64
2021/09/25 08:13:02;;;;;;;263.87;252.33;;;19.20;99.90;;;;;;4347166;33;20230;-64
2021/09/25 08:15:29;;;;;;;275.23;262.87;;;19.20;99.90;;;;;;4347437;33;20208;-66
2021/09/25 08:17:56;;;;;;;237.20;226.17;;;19.30;99.90;;;;;;4348979;33;20169;-64
2021/09/25 08:20:25;;;;;;;242.83;231.73;;;19.40;99.90;;;;;;4347557;33;20248;-64
2021/09/25 08:22:52;;;;;;;250.53;238.90;;;19.50;99.90;;;;;;4349422;33;20157;-64
2021/09/25 08:25:22;;;;;;;259.97;248.37;;;19.60;99.90;;;;;;4340008;33;20175;-66
2021/09/25 08:27:54;;;;;;;230.17;219.37;;;19.80;99.90;;;;;;4346496;33;20169;-65
2021/09/25 08:30:27;;;;;;;259.97;248.27;;;19.70;99.90;;;;;;4345653;33;20179;-64
2021/09/25 08:32:58;;;;;;;256.50;245.00;;;19.60;99.90;;;;;;4347842;33;20506;-65
2021/09/25 08:35:28;;;;;;;248.00;236.73;;;19.60;99.90;;;;;;4348065;33;20171;-66
2021/09/25 08:37:55;;;;;;;237.83;226.77;;;19.60;99.90;;;;;;4348398;33;20165;-65
2021/09/25 08:40:24;;;;;;;238.10;227.33;;;19.60;99.90;;;;;;4347565;33;20157;-65
2021/09/25 08:42:52;;;;;;;232.67;221.73;;;19.70;99.90;;;;;;4348076;33;20191;-65
2021/09/25 08:45:20;;;;;;;234.23;223.77;;;20.00;99.90;;;;;;4346905;33;20157;-65
2021/09/25 08:47:46;;;;;;;234.17;223.47;;;19.90;99.90;;;;;;4333326;33;20314;-65
2021/09/25 08:50:15;;;;;;;230.63;219.90;;;19.90;99.90;;;;;;4333240;33;20161;-65
2021/09/25 08:52:45;;;;;;;244.13;233.47;;;19.90;99.90;;;;;;4333161;33;20168;-66
2021/09/25 08:55:18;;;;;;;236.07;225.03;;;20.00;99.90;;;;;;4332750;33;20219;-65
2021/09/25 08:57:46;;;;;;;245.07;233.23;;;20.20;99.90;;;;;;4332790;33;20157;-64
2021/09/25 09:00:33;;;;;;;213.20;203.40;;;20.40;99.90;;;;;;4332819;33;20181;-66
2021/09/25 09:03:29;;;;;;;219.57;209.10;;;20.50;99.90;;;;;;4334552;33;20145;-66
2021/09/25 09:06:05;;;;;;;202.30;192.70;;;20.40;99.90;;;;;;4328190;33;20193;-66
2021/09/25 09:08:32;;;;;;;232.33;221.60;;;20.30;99.90;;;;;;4334435;33;20204;-67
2021/09/25 09:10:59;;;;;;;223.07;212.73;;;20.30;99.90;;;;;;4334231;33;20510;-64
2021/09/25 09:13:27;;;;;;;220.33;209.80;;;20.30;99.90;;;;;;4332799;33;20165;-65
2021/09/25 09:15:54;;;;;;;216.53;206.27;;;20.40;99.90;;;;;;4332691;33;20227;-65
2021/09/25 09:18:25;;;;;;;215.17;204.27;;;20.30;99.90;;;;;;4333715;33;20153;-65
2021/09/25 09:21:03;;;;;;;222.03;211.60;;;20.40;99.90;;;;;;4333098;33;20217;-65
2021/09/25 09:23:31;;;;;;;218.93;208.50;;;20.50;99.90;;;;;;4334261;33;20161;-65
2021/09/25 09:25:58;;;;;;;224.27;213.83;;;20.60;99.90;;;;;;4333490;33;20180;-66
2021/09/25 09:28:29;;;;;;;224.77;213.20;;;20.70;99.90;;;;;;4332474;33;20184;-64
2021/09/25 09:31:00;;;;;;;214.40;203.57;;;20.90;99.90;;;;;;4332506;33;20169;-65
2021/09/25 09:33:44;;;;;;;218.03;207.23;;;21.10;99.90;;;;;;4332501;33;20555;-67
2021/09/25 09:36:19;;;;;;;197.47;186.97;;;21.20;99.90;;;;;;4331677;33;20208;-65
2021/09/25 09:38:52;;;;;;;204.87;194.43;;;21.10;99.90;;;;;;4332429;33;20233;-65
2021/09/25 09:41:31;;;;;;;196.90;186.10;;;21.10;99.90;;;;;;4333969;33;20153;-66
2021/09/25 09:44:03;;;;;;;194.33;184.40;;;21.20;99.90;;;;;;4333129;33;20184;-66
2021/09/25 09:46:34;;;;;;;197.50;187.30;;;21.20;99.90;;;;;;4344604;33;20148;-67
2021/09/25 09:49:02;;;;;;;217.33;206.20;;;21.20;99.90;;;;;;4346968;33;20582;-66
2021/09/25 09:51:38;;;;;;;208.30;197.60;;;21.20;99.90;;;;;;4346813;33;20153;-64
2021/09/25 09:54:37;;;;;;;196.97;187.17;;;21.30;99.90;;;;;;4348444;33;20172;-67
2021/09/25 09:57:11;;;;;;;205.73;195.07;;;21.30;99.90;;;;;;4285254;33;20360;-66
2021/09/25 09:59:44;;;;;;;209.87;199.50;;;21.30;99.90;;;;;;4286217;33;20283;-66
2021/09/25 10:02:11;;;;;;;216.37;205.80;;;21.30;99.90;;;;;;4285915;33;20185;-66
2021/09/25 10:04:45;;;;;;;225.03;214.13;;;21.40;99.90;;;;;;4286967;33;20643;-67
2021/09/25 10:07:14;;;;;;;192.30;182.53;;;21.40;99.90;;;;;;4287384;33;20203;-66
2021/09/25 10:09:45;;;;;;;189.63;179.80;;;21.50;99.90;;;;;;4286774;33;20182;-66
2021/09/25 10:12:15;;;;;;;193.97;183.80;;;21.50;99.90;;;;;;4286098;33;20221;-67
2021/09/25 10:14:47;;;;;;;195.57;185.33;;;21.40;99.90;;;;;;4286195;33;20170;-67
2021/09/25 10:17:16;;;;;;;196.37;186.27;;;21.30;99.90;;;;;;4277794;33;20237;-67
2021/09/25 10:19:45;;;;;;;207.70;197.07;;;21.20;99.90;;;;;;4282531;33;20192;-66
2021/09/25 10:22:15;;;;;;;212.80;202.30;;;21.40;99.90;;;;;;4278443;33;20751;-66
2021/09/25 10:24:45;;;;;;;198.50;188.47;;;21.50;99.90;;;;;;4278705;33;20253;-66
2021/09/25 10:27:14;;;;;;;197.47;187.13;;;21.60;99.90;;;;;;4280831;33;20222;-66
2021/09/25 10:29:48;;;;;;;203.87;193.70;;;21.60;99.90;;;;;;4272774;33;20170;-66
2021/09/25 10:32:18;;;;;;;207.00;196.60;;;21.60;99.90;;;;;;4276632;33;20209;-67
2021/09/25 10:35:12;;;;;;;186.37;176.60;;;21.60;99.90;;;;;;4328555;33;20200;-66
2021/09/25 10:37:42;;;;;;;182.93;173.13;;;21.60;99.90;;;;;;4343856;33;20161;-65
2021/09/25 10:40:14;;;;;;;198.90;188.60;;;21.40;99.90;;;;;;4345305;33;20149;-67
2021/09/25 10:42:47;;;;;;;208.20;197.47;;;21.20;99.90;;;;;;4344180;33;20170;-66
2021/09/25 10:45:23;;;;;;;218.07;207.07;;;21.30;99.90;;;;;;4342676;33;20153;-66
2021/09/25 10:48:06;;;;;;;238.27;226.63;;;21.40;99.90;;;;;;4342358;33;20222;-66
2021/09/25 10:50:35;;;;;;;193.27;182.97;;;21.70;99.90;;;;;;4345197;33;20148;-66
2021/09/25 10:53:12;;;;;;;185.40;176.00;;;22.00;99.90;;;;;;4345374;33;20177;-67
2021/09/25 10:55:42;;;;;;;168.67;159.57;;;22.30;99.90;;;;;;4345220;33;20149;-66
2021/09/25 10:58:32;;;;;;;158.90;150.27;;;22.40;99.90;;;;;;4345652;33;20173;-68
2021/09/25 11:01:05;;;;;;;170.47;161.03;;;22.30;99.90;;;;;;4343776;33;20210;-67
2021/09/25 11:04:12;;;;;;;184.63;174.60;;;22.10;99.90;;;;;;4345518;33;20149;-67
2021/09/25 11:06:47;;;;;;;184.90;175.18;;;21.90;99.90;;;;;;4345312;33;20488;-66
2021/09/25 11:09:27;;;;;;;199.40;188.93;;;22.00;99.90;;;;;;4344612;33;20160;-67
2021/09/25 11:11:56;;;;;;;184.03;174.20;;;22.00;99.90;;;;;;4347955;32;20521;-66
2021/09/25 11:14:28;;;;;;;184.07;174.63;;;21.90;99.90;;;;;;4343929;33;20208;-66
2021/09/25 11:17:02;;;;;;;199.83;188.90;;;21.90;99.90;;;;;;4338802;33;20218;-69
2021/09/25 11:19:45;;;;;;;199.77;188.93;;;21.90;99.90;;;;;;4343506;33;20729;-69
2021/09/25 11:22:16;;;;;;;189.23;179.03;;;21.90;99.90;;;;;;4332893;33;20271;-67
2021/09/25 11:24:45;;;;;;;179.13;169.70;;;21.90;99.90;;;;;;4343933;33;20173;-69
2021/09/25 11:27:15;;;;;;;179.10;169.53;;;21.90;99.90;;;;;;4338209;33;20239;-68
2021/09/25 11:30:01;;;;;;;198.20;187.83;;;21.80;99.90;;;;;;4343972;33;20492;-69
2021/09/25 11:32:37;;;;;;;180.93;170.90;;;21.80;99.90;;;;;;4344122;33;20215;-65
2021/09/25 11:35:09;;;;;;;203.50;193.00;;;21.80;99.90;;;;;;4343758;33;20296;-68
2021/09/25 11:37:45;;;;;;;183.17;173.93;;;21.80;99.90;;;;;;4344069;33;20569;-67
2021/09/25 11:40:13;;;;;;;193.40;183.17;;;21.90;99.90;;;;;;4344950;33;20224;-68
2021/09/25 11:42:39;;;;;;;221.37;210.43;;;22.10;99.90;;;;;;4342803;33;20175;-68
2021/09/25 11:45:08;;;;;;;190.20;180.10;;;22.20;99.90;;;;;;4344378;33;20181;-67
2021/09/25 11:47:38;;;;;;;182.83;173.17;;;22.40;99.90;;;;;;4343977;33;20192;-66
2021/09/25 11:50:15;;;;;;;180.37;171.00;;;22.60;99.90;;;;;;4340984;33;20172;-68
2021/09/25 11:52:44;;;;;;;180.63;171.40;;;22.70;99.90;;;;;;4344847;33;20156;-67
2021/09/25 11:55:12;;;;;;;170.03;160.93;;;23.00;99.90;;;;;;4339359;33;20184;-67
2021/09/25 11:57:39;;;;;;;146.43;138.65;;;23.10;99.90;;;;;;4344099;33;20188;-68
2021/09/25 12:00:21;;;;;;;139.30;132.05;;;23.20;99.90;;;;;;4340435;33;20184;-68
2021/09/25 12:02:50;;;;;;;143.50;135.70;;;23.30;99.90;;;;;;4342027;33;20639;-68
2021/09/25 12:05:42;;;;;;;133.35;126.25;;;23.50;99.90;;;;;;4343552;33;20161;-68
2021/09/25 12:08:13;;;;;;;118.20;111.32;;;23.70;99.90;;;;;;4292424;33;20302;-68
2021/09/25 12:10:43;;;;;;;118.15;111.60;;;23.80;99.90;;;;;;4287922;33;20177;-67
2021/09/25 12:13:12;;;;;;;116.00;108.82;;;23.80;99.90;;;;;;4281570;33;20301;-68
2021/09/25 12:15:41;;;;;;;118.07;111.28;;;23.80;99.90;;;;;;4284235;33;20230;-69
2021/09/25 12:18:17;;;;;;;129.60;122.43;;;23.60;99.90;;;;;;4281853;33;20226;-67
2021/09/25 12:20:58;;;;;;;122.97;115.73;;;23.40;99.90;;;;;;4299215;33;20626;-66